Time;durP1;ratioP1;P1;durP2;ratioP2;P2;SDS_P1;SDS_P2;PMS_P1;PMS_P2;Temp;Humidity;BMP_temperature;BMP_pressure;BME280_temperature;BME280_humidity;BME280_pressure;Samples;Min_cycle;Max_cycle;Signal;HPM_P1;HPM_P2
2022/04/25 00:02:03;;;;;;;;;15.00;14.50;;;;;15.15;100.00;100205.63;3728269;37;20409;-76
2022/04/25 00:04:31;;;;;;;;;12.50;11.75;;;;;15.15;100.00;100219.25;3728546;38;20429;-76
2022/04/25 00:06:58;;;;;;;;;11.75;11.75;;;;;15.16;100.00;100246.28;3728142;37;20336;-75
2022/04/25 00:09:26;;;;;;;;;11.75;11.00;;;;;15.21;100.00;100254.63;3728016;38;20383;-76
2022/04/25 00:11:53;;;;;;;;;14.50;13.25;;;;;15.18;100.00;100251.53;3728033;37;20667;-75
2022/04/25 00:14:21;;;;;;;;;12.00;11.75;;;;;15.28;100.00;100259.22;3728721;38;20494;-75
2022/04/25 00:16:54;;;;;;;;;12.50;12.00;;;;;15.22;100.00;100263.66;3729087;38;20416;-76
2022/04/25 00:19:23;;;;;;;;;11.00;11.00;;;;;15.23;100.00;100263.44;3729490;37;20345;-77
2022/04/25 00:21:53;;;;;;;;;15.25;14.50;;;;;15.17;100.00;100264.31;3731052;37;20338;-76
2022/04/25 00:24:22;;;;;;;;;13.00;13.00;;;;;15.14;100.00;100258.47;3733226;38;20373;-75
2022/04/25 00:26:49;;;;;;;;;14.25;12.75;;;;;15.13;100.00;100267.69;3733450;38;20372;-76
2022/04/25 00:29:18;;;;;;;;;13.75;13.25;;;;;14.95;100.00;100262.19;3732985;38;20589;-76
2022/04/25 00:31:46;;;;;;;;;14.00;11.50;;;;;14.90;100.00;100265.56;3733161;37;20368;-75
2022/04/25 00:34:14;;;;;;;;;13.50;13.25;;;;;14.92;100.00;100265.34;3733226;37;20429;-76
2022/04/25 00:36:41;;;;;;;;;12.00;12.00;;;;;14.90;100.00;100257.41;3732581;38;20306;-76
2022/04/25 00:39:09;;;;;;;;;10.25;10.25;;;;;14.79;100.00;100255.34;3731722;37;20341;-76
2022/04/25 00:41:37;;;;;;;;;13.25;13.00;;;;;14.48;100.00;100227.03;3732277;37;20321;-75
2022/04/25 00:44:05;;;;;;;;;13.25;13.00;;;;;14.54;100.00;100258.03;3731692;37;20358;-75
2022/04/25 00:46:35;;;;;;;;;13.50;11.75;;;;;14.27;100.00;100208.25;3731540;37;20590;-75
2022/04/25 00:49:04;;;;;;;;;12.50;12.50;;;;;14.49;100.00;100236.06;3731276;38;20370;-73
2022/04/25 00:51:31;;;;;;;;;13.00;12.50;;;;;14.49;100.00;100231.44;3731722;38;20420;-74
2022/04/25 00:54:00;;;;;;;;;13.75;13.75;;;;;14.50;100.00;100240.44;3731073;37;20317;-75
2022/04/25 00:56:27;;;;;;;;;12.50;11.50;;;;;14.52;100.00;100232.91;3727309;38;20372;-74
2022/04/25 00:58:55;;;;;;;;;12.00;12.00;;;;;14.39;100.00;100217.44;3726383;37;20296;-74
2022/04/25 01:01:25;;;;;;;;;10.50;10.50;;;;;14.39;100.00;100247.37;3727586;37;20277;-74
2022/04/25 01:03:52;;;;;;;;;14.75;14.00;;;;;14.32;100.00;100260.16;3726557;37;20283;-74
2022/04/25 01:06:19;;;;;;;;;9.50;9.50;;;;;14.12;100.00;100275.72;3726916;37;20391;-74
2022/04/25 01:08:47;;;;;;;;;11.75;11.50;;;;;13.72;100.00;100280.41;3726017;38;20287;-73
2022/04/25 01:11:15;;;;;;;;;10.75;10.50;;;;;13.28;100.00;100273.75;3725900;38;20287;-74
2022/04/25 01:13:43;;;;;;;;;13.25;13.00;;;;;13.41;100.00;100308.25;3726850;38;20282;-75
2022/04/25 01:16:11;;;;;;;;;12.25;12.25;;;;;13.28;100.00;100303.66;3727218;38;20333;-77
2022/04/25 01:18:39;;;;;;;;;14.00;13.25;;;;;13.36;100.00;100310.75;3727124;37;20352;-76
2022/04/25 01:21:13;;;;;;;;;10.75;10.75;;;;;13.56;100.00;100325.19;3727054;38;20227;-76
2022/04/25 01:29:13;;;;;;;;;11.00;11.00;;;;;13.74;100.00;100310.97;3727745;38;20335;-76
2022/04/25 01:31:40;;;;;;;;;13.00;13.00;;;;;13.56;100.00;100277.06;3727960;38;20349;-76
2022/04/25 01:34:07;;;;;;;;;10.50;10.25;;;;;13.84;100.00;100305.94;3727485;38;20398;-76
2022/04/25 01:36:35;;;;;;;;;10.00;10.00;;;;;13.80;100.00;100294.63;3727256;38;20258;-76
2022/04/25 01:39:02;;;;;;;;;12.00;12.00;;;;;13.90;100.00;100319.53;3727494;37;20233;-76
2022/04/25 01:41:34;;;;;;;;;12.50;11.50;;;;;13.90;100.00;100315.97;3727850;38;19843;-77
2022/04/25 01:44:02;;;;;;;;;14.00;14.00;;;;;13.88;100.00;100315.34;3728209;38;19740;-75
2022/04/25 01:46:29;;;;;;;;;11.75;11.00;;;;;13.86;100.00;100303.84;3728795;38;19661;-76
2022/04/25 01:48:56;;;;;;;;;14.00;14.00;;;;;13.81;100.00;100306.34;3728484;37;19603;-77
2022/04/25 01:51:25;;;;;;;;;12.50;12.00;;;;;13.68;100.00;100293.59;3728860;38;19662;-78
2022/04/25 01:53:52;;;;;;;;;11.75;11.75;;;;;13.66;100.00;100292.97;3729958;37;19659;-77
2022/04/25 01:56:20;;;;;;;;;12.75;12.25;;;;;13.58;100.00;100291.31;3729353;38;19695;-80
2022/04/25 01:58:47;;;;;;;;;14.00;13.25;;;;;13.68;100.00;100311.81;3728732;38;19644;-79
2022/04/25 02:01:15;;;;;;;;;13.25;13.00;;;;;13.61;100.00;100302.81;3728414;37;19738;-79
2022/04/25 02:03:43;;;;;;;;;12.75;12.25;;;;;12.65;100.00;100156.44;3729362;38;20599;-78
2022/04/25 02:06:11;;;;;;;;;12.75;12.75;;;;;13.50;100.00;100305.13;3729673;37;20636;-78
2022/04/25 02:08:39;;;;;;;;;11.25;11.00;;;;;13.45;100.00;100307.63;3729433;38;20691;-77
2022/04/25 02:11:21;;;;;;;;;11.00;11.00;;;;;13.35;100.00;100293.63;3729133;37;19718;-78
2022/04/25 02:13:51;;;;;;;;;13.75;12.50;;;;;13.33;100.00;100294.87;3729032;37;20607;-76
2022/04/25 02:16:20;;;;;;;;;12.25;12.00;;;;;13.07;100.00;100291.03;3728816;37;20714;-76
2022/04/25 02:18:48;;;;;;;;;14.75;13.25;;;;;13.05;100.00;100312.13;3729069;38;20654;-76
2022/04/25 02:21:16;;;;;;;;;14.75;14.00;;;;;12.99;100.00;100307.56;3728783;37;20671;-75
2022/04/25 02:23:46;;;;;;;;;13.25;13.25;;;;;12.88;100.00;100325.28;3727618;37;20797;-75
2022/04/25 02:26:14;;;;;;;;;12.00;11.25;;;;;12.74;100.00;100329.00;3726993;37;20597;-76
2022/04/25 02:28:41;;;;;;;;;13.00;13.00;;;;;12.67;100.00;100319.97;3727607;37;20705;-75
2022/04/25 02:31:12;;;;;;;;;11.75;11.75;;;;;12.66;100.00;100314.75;3727362;37;20681;-76
2022/04/25 02:33:41;;;;;;;;;13.25;13.25;;;;;12.66;100.00;100321.03;3727933;37;20639;-75
2022/04/25 02:36:08;;;;;;;;;11.00;11.00;;;;;12.65;100.00;100324.78;3727724;37;20754;-78
2022/04/25 02:38:37;;;;;;;;;9.50;9.00;;;;;12.62;100.00;100322.47;3727414;38;20684;-75
2022/04/25 02:41:04;;;;;;;;;13.50;12.50;;;;;12.57;100.00;100325.78;3726938;38;21028;-75
2022/04/25 02:43:45;;;;;;;;;15.00;14.25;;;;;12.44;100.00;100327.63;3727453;38;21201;-76
2022/04/25 02:46:15;;;;;;;;;14.00;12.50;;;;;12.30;100.00;100324.00;3728003;37;21408;-75
2022/04/25 02:48:44;;;;;;;;;13.25;12.75;;;;;12.10;100.00;100326.59;3728072;37;21236;-76
2022/04/25 02:51:14;;;;;;;;;12.00;11.50;;;;;12.06;100.00;100322.59;3728231;38;21168;-75
2022/04/25 02:53:41;;;;;;;;;21.00;18.50;;;;;11.96;100.00;100316.69;3727803;37;21110;-78
2022/04/25 02:56:09;;;;;;;;;21.00;21.00;;;;;12.00;100.00;100323.38;3728391;38;21155;-78
2022/04/25 02:58:41;;;;;;;;;17.25;17.25;;;;;11.98;100.00;100330.88;3727763;38;21183;-74
2022/04/25 03:01:08;;;;;;;;;16.50;15.50;;;;;11.99;100.00;100331.72;3727692;37;21381;-76
2022/04/25 03:03:37;;;;;;;;;25.25;25.25;;;;;12.00;100.00;100333.41;3727959;37;21122;-76
2022/04/25 03:06:07;;;;;;;;;19.50;18.75;;;;;12.00;100.00;100350.50;3727530;37;21127;-75
2022/04/25 03:08:35;;;;;;;;;12.75;11.25;;;;;11.97;100.00;100352.78;3727331;37;21172;-76
2022/04/25 03:11:10;;;;;;;;;11.00;11.00;;;;;11.48;100.00;100278.56;3727171;38;21128;-75
2022/04/25 03:13:41;;;;;;;;;10.00;10.00;;;;;11.84;100.00;100354.38;3727216;37;21162;-76
2022/04/25 03:16:09;;;;;;;;;11.25;11.25;;;;;11.87;100.00;100351.28;3727953;37;21181;-75
2022/04/25 03:18:36;;;;;;;;;13.25;13.25;;;;;11.86;100.00;100329.78;3727882;37;21316;-74
2022/04/25 03:21:05;;;;;;;;;12.50;12.25;;;;;12.00;100.00;100333.41;3728640;37;21159;-75
2022/04/25 03:23:36;;;;;;;;;11.25;10.75;;;;;11.93;100.00;100322.53;3727754;38;21076;-75
2022/04/25 03:26:04;;;;;;;;;14.25;14.00;;;;;12.05;100.00;100344.50;3728487;37;21156;-74
2022/04/25 03:28:31;;;;;;;;;12.00;12.00;;;;;12.17;100.00;100351.06;3728304;37;21129;-75
2022/04/25 03:30:59;;;;;;;;;13.50;12.75;;;;;12.22;100.00;100354.00;3728523;38;21222;-75
2022/04/25 03:33:31;;;;;;;;;14.25;14.00;;;;;12.31;100.00;100350.09;3728385;38;21111;-75
2022/04/25 03:36:00;;;;;;;;;13.75;13.25;;;;;12.25;100.00;100331.91;3728137;37;21136;-75
2022/04/25 03:38:29;;;;;;;;;15.00;14.00;;;;;12.25;100.00;100332.75;3727789;37;21065;-74
2022/04/25 03:40:57;;;;;;;;;16.75;16.25;;;;;12.41;100.00;100345.16;3727495;37;21184;-76
2022/04/25 03:43:24;;;;;;;;;16.25;15.25;;;;;12.38;100.00;100342.00;3728090;38;21143;-76
2022/04/25 03:45:52;;;;;;;;;19.25;19.25;;;;;12.34;100.00;100346.16;3727567;37;21122;-75
2022/04/25 03:48:20;;;;;;;;;24.75;24.25;;;;;12.34;100.00;100351.56;3728083;37;21334;-75
2022/04/25 03:50:48;;;;;;;;;21.50;21.00;;;;;12.33;100.00;100358.03;3727792;37;21303;-77
2022/04/25 03:53:15;;;;;;;;;16.00;16.00;;;;;12.42;100.00;100354.97;3727365;38;21248;-76
2022/04/25 03:58:29;;;;;;;;;22.50;22.50;;;;;12.58;100.00;100364.62;3727848;37;21142;-75
2022/04/25 04:00:56;;;;;;;;;16.00;15.50;;;;;12.55;100.00;100362.31;3727973;37;21052;-75
2022/04/25 04:03:24;;;;;;;;;13.25;13.25;;;;;12.34;100.00;100360.56;3726771;38;21130;-76
2022/04/25 04:05:53;;;;;;;;;13.75;13.75;;;;;12.27;100.00;100344.22;3727883;38;21089;-75
2022/04/25 04:08:20;;;;;;;;;14.25;14.25;;;;;12.23;100.00;100351.09;3727573;38;21145;-74
2022/04/25 04:10:48;;;;;;;;;15.50;15.50;;;;;12.25;100.00;100353.59;3728043;38;21138;-74
2022/04/25 04:13:15;;;;;;;;;13.50;13.50;;;;;12.41;100.00;100374.16;3727035;38;21104;-75
2022/04/25 04:15:43;;;;;;;;;9.75;9.75;;;;;12.42;100.00;100367.69;3727327;37;21147;-76
2022/04/25 04:18:11;;;;;;;;;12.75;12.50;;;;;12.62;100.00;100379.47;3727331;37;21079;-77
2022/04/25 04:20:38;;;;;;;;;16.75;15.00;;;;;12.71;100.00;100375.56;3727647;38;21105;-73
2022/04/25 04:23:06;;;;;;;;;14.50;13.50;;;;;12.86;100.00;100378.97;3726922;37;21041;-74
2022/04/25 04:25:34;;;;;;;;;14.25;13.25;;;;;12.85;100.00;100384.59;3727480;38;21200;-76
2022/04/25 04:28:02;;;;;;;;;14.75;14.50;;;;;12.84;100.00;100363.91;3727124;37;21116;-75
2022/04/25 04:30:29;;;;;;;;;14.00;13.75;;;;;13.13;100.00;100384.47;3727001;37;21016;-75
2022/04/25 04:32:57;;;;;;;;;0.00;0.00;;;;;13.18;100.00;100369.25;3727435;37;21035;-76
2022/04/25 04:38:10;;;;;;;;;16.50;15.75;;;;;13.48;100.00;100377.06;3727124;37;21284;-75
2022/04/25 04:40:37;;;;;;;;;20.25;18.25;;;;;13.67;100.00;100383.56;3726998;37;21107;-75
2022/04/25 04:43:05;;;;;;;;;18.00;17.25;;;;;13.81;100.00;100374.38;3727129;37;21030;-77
2022/04/25 04:45:33;;;;;;;;;16.50;16.00;;;;;13.97;100.00;100379.37;3726903;38;21256;-75
2022/04/25 04:48:01;;;;;;;;;17.50;17.50;;;;;14.13;100.00;100380.81;3727203;38;21025;-76
2022/04/25 04:50:29;;;;;;;;;16.75;16.75;;;;;14.28;100.00;100369.69;3727883;37;21139;-74
2022/04/25 04:52:59;;;;;;;;;18.25;17.00;;;;;14.40;100.00;100373.44;3727587;37;21249;-76
2022/04/25 04:55:27;;;;;;;;;15.50;15.50;;;;;14.48;100.00;100344.12;3727902;38;21204;-75
2022/04/25 04:57:58;;;;;;;;;16.25;16.25;;;;;14.62;100.00;100357.69;3727850;38;21038;-75
2022/04/25 05:00:25;;;;;;;;;16.00;16.00;;;;;14.72;100.00;100369.81;3727262;38;21163;-75
2022/04/25 05:02:52;;;;;;;;;16.00;15.25;;;;;14.79;100.00;100364.34;3726845;37;20952;-75
2022/04/25 05:05:21;;;;;;;;;16.00;16.00;;;;;14.89;100.00;100362.81;3727068;37;20977;-76
2022/04/25 05:07:48;;;;;;;;;13.75;13.75;;;;;14.97;100.00;100366.34;3725865;37;20826;-76
2022/04/25 05:10:16;;;;;;;;;14.75;13.75;;;;;14.96;100.00;100345.63;3727471;37;21055;-74
2022/04/25 05:12:44;;;;;;;;;14.75;13.25;;;;;15.16;100.00;100360.78;3727029;37;20982;-74
2022/04/25 05:15:13;;;;;;;;;13.50;13.50;;;;;15.20;100.00;100348.38;3727266;37;21191;-75
2022/04/25 05:17:42;;;;;;;;;12.75;12.50;;;;;15.17;100.00;100342.53;3726031;38;20981;-73
2022/04/25 05:20:11;;;;;;;;;13.25;13.25;;;;;15.19;100.00;100337.69;3725526;38;21058;-73
2022/04/25 05:22:40;;;;;;;;;13.50;13.50;;;;;15.26;100.00;100348.56;3726761;37;21223;-75
2022/04/25 05:25:09;;;;;;;;;15.25;14.50;;;;;15.32;100.00;100334.06;3726479;38;21003;-74
2022/04/25 05:27:38;;;;;;;;;16.00;16.00;;;;;15.36;100.00;100327.94;3725778;37;20978;-72
2022/04/25 05:30:06;;;;;;;;;13.50;13.00;;;;;15.50;100.00;100318.63;3726007;38;21029;-73
2022/04/25 05:32:48;;;;;;;;;14.00;13.50;;;;;15.61;100.00;100316.22;3726102;37;20929;-70
2022/04/25 05:35:17;;;;;;;;;17.25;15.75;;;;;15.71;100.00;100311.13;3725668;38;20953;-75
2022/04/25 05:37:46;;;;;;;;;15.25;14.50;;;;;15.83;100.00;100298.41;3726017;37;21184;-75
2022/04/25 05:40:15;;;;;;;;;14.50;14.25;;;;;15.97;100.00;100301.84;3725787;38;21016;-72
2022/04/25 05:42:44;;;;;;;;;11.75;11.75;;;;;16.04;100.00;100283.53;3725342;37;21002;-73
2022/04/25 05:45:13;;;;;;;;;14.00;14.00;;;;;16.11;100.00;100282.41;3725070;37;20979;-74
2022/04/25 05:47:41;;;;;;;;;11.00;10.75;;;;;16.19;100.00;100281.22;3725359;38;20965;-74
2022/04/25 05:52:57;;;;;;;;;15.00;15.00;;;;;16.26;100.00;100279.25;3725377;38;20881;-73
2022/04/25 05:55:25;;;;;;;;;12.25;12.25;;;;;16.22;100.00;100284.34;3726242;38;20913;-73
2022/04/25 05:57:52;;;;;;;;;18.00;17.00;;;;;15.92;100.00;100264.31;3725264;37;20952;-73
2022/04/25 06:00:19;;;;;;;;;14.00;14.00;;;;;16.01;100.00;100267.59;3724682;38;21167;-73
2022/04/25 06:02:47;;;;;;;;;12.75;12.50;;;;;15.96;100.00;100262.81;3724789;37;21131;-73
2022/04/25 06:05:15;;;;;;;;;12.25;12.00;;;;;16.01;100.00;100264.88;3725393;37;21126;-73
2022/04/25 06:07:45;;;;;;;;;14.50;13.75;;;;;16.14;100.00;100253.78;3725297;38;20854;-72
2022/04/25 06:10:14;;;;;;;;;12.50;11.50;;;;;16.21;100.00;100235.41;3725618;37;20941;-76
2022/04/25 06:12:48;;;;;;;;;12.25;11.50;;;;;16.26;100.00;100240.19;3726608;38;20863;-72
2022/04/25 06:15:17;;;;;;;;;9.75;9.00;;;;;16.30;100.00;100247.72;3726977;37;20865;-73
2022/04/25 06:17:44;;;;;;;;;9.50;9.50;;;;;16.35;100.00;100241.56;3725384;37;20767;-71
2022/04/25 06:20:12;;;;;;;;;12.25;11.25;;;;;16.46;100.00;100257.19;3725411;38;20902;-74
2022/04/25 06:22:39;;;;;;;;;10.00;9.00;;;;;16.63;100.00;100257.41;3726273;37;20840;-72
2022/04/25 06:25:08;;;;;;;;;14.25;13.50;;;;;16.82;100.00;100254.41;3727027;38;20785;-73
2022/04/25 06:27:35;;;;;;;;;9.75;9.75;;;;;16.89;100.00;100265.25;3726461;37;21038;-75
2022/04/25 06:30:04;;;;;;;;;11.50;11.50;;;;;16.92;100.00;100253.00;3726432;37;20787;-75
2022/04/25 06:32:43;;;;;;;;;8.25;8.00;;;;;16.87;100.00;100253.69;3725774;37;20970;-75
2022/04/25 06:35:11;;;;;;;;;11.00;11.00;;;;;16.78;100.00;100249.63;3724829;38;20872;-77
2022/04/25 06:37:38;;;;;;;;;11.00;10.00;;;;;16.73;100.00;100247.59;3727249;38;20910;-75
2022/04/25 06:40:07;;;;;;;;;9.00;9.00;;;;;16.77;100.00;100251.53;3725984;37;20370;-73
2022/04/25 06:42:35;;;;;;;;;10.75;9.50;;;;;16.85;100.00;100253.94;3727527;37;20189;-75
2022/04/25 06:45:03;;;;;;;;;11.50;11.00;;;;;16.83;100.00;100245.13;3726807;38;20321;-74
2022/04/25 06:47:30;;;;;;;;;12.75;12.75;;;;;16.49;100.00;100189.25;3726125;37;20240;-76
2022/04/25 06:49:58;;;;;;;;;12.00;12.00;;;;;16.87;100.00;100260.00;3727775;37;20359;-77
2022/04/25 06:52:25;;;;;;;;;12.00;11.25;;;;;16.78;100.00;100271.50;3727000;37;20211;-71
2022/04/25 06:54:53;;;;;;;;;10.75;10.75;;;;;16.74;100.00;100286.69;3726808;37;20219;-73
2022/04/25 06:57:20;;;;;;;;;10.00;10.00;;;;;16.54;100.00;100286.94;3726946;37;20380;-75
2022/04/25 06:59:47;;;;;;;;;12.50;12.50;;;;;16.24;100.00;100232.22;3726406;38;20315;-79
2022/04/25 07:02:15;;;;;;;;;10.25;10.25;;;;;16.74;100.00;100287.50;3727434;37;20322;-76
2022/04/25 07:04:43;;;;;;;;;9.75;9.00;;;;;16.82;100.00;100286.34;3728479;38;20282;-77
2022/04/25 07:07:10;;;;;;;;;10.25;9.25;;;;;16.74;100.00;100287.50;3726165;38;20170;-77
2022/04/25 07:09:38;;;;;;;;;11.25;10.00;;;;;16.84;100.00;100296.00;3726520;37;20214;-78
2022/04/25 07:12:06;;;;;;;;;9.25;9.25;;;;;16.94;100.00;100289.16;3727325;37;20243;-77
2022/04/25 07:14:34;;;;;;;;;8.00;7.00;;;;;16.93;100.00;100284.75;3727026;38;20270;-79
2022/04/25 07:17:04;;;;;;;;;9.50;9.50;;;;;16.87;100.00;100265.47;3728749;38;20250;-79
2022/04/25 07:19:32;;;;;;;;;10.25;10.25;;;;;17.03;100.00;100268.63;3729153;37;20385;-77
2022/04/25 07:30:16;;;;;;;;;9.00;9.00;;;;;16.94;100.00;100286.41;3726336;37;20205;-77
2022/04/25 07:32:44;;;;;;;;;10.25;10.25;;;;;17.01;100.00;100290.72;3725823;37;20233;-75
2022/04/25 07:35:11;;;;;;;;;15.25;15.25;;;;;17.05;100.00;100302.88;3726849;37;20326;-74
2022/04/25 07:37:39;;;;;;;;;9.75;9.75;;;;;16.81;100.00;100329.25;3727867;37;20221;-76
2022/04/25 07:40:10;;;;;;;;;9.00;9.00;;;;;16.53;100.00;100372.69;3725489;37;20814;-72
2022/04/25 07:42:39;;;;;;;;;9.75;9.75;;;;;16.27;100.00;100389.31;3724910;38;20850;-74
2022/04/25 07:45:07;;;;;;;;;14.25;13.25;;;;;16.26;100.00;100387.66;3725950;37;20651;-74
2022/04/25 07:47:35;;;;;;;;;13.50;13.50;;;;;16.19;100.00;100365.87;3726960;37;20788;-77
2022/04/25 07:50:04;;;;;;;;;14.25;12.75;;;;;16.17;100.00;100352.44;3727919;38;20845;-80
2022/04/25 07:52:32;;;;;;;;;9.25;9.25;;;;;16.21;100.00;100342.75;3725930;38;20718;-77
2022/04/25 07:54:59;;;;;;;;;13.25;13.25;;;;;16.28;100.00;100341.84;3725400;38;20819;-75
2022/04/25 07:57:27;;;;;;;;;10.25;10.25;;;;;16.33;100.00;100350.19;3724388;37;20977;-74
2022/04/25 07:59:54;;;;;;;;;13.00;11.75;;;;;16.27;100.00;100343.75;3726380;38;20737;-78
2022/04/25 08:02:23;;;;;;;;;13.00;12.75;;;;;16.29;100.00;100338.87;3725439;38;20707;-77
2022/04/25 08:04:50;;;;;;;;;11.00;11.00;;;;;16.48;100.00;100337.84;3725662;38;20719;-77
2022/04/25 08:07:17;;;;;;;;;14.25;14.00;;;;;16.46;100.00;100331.78;3726536;37;20895;-75
2022/04/25 08:09:45;;;;;;;;;12.25;11.75;;;;;16.31;100.00;100294.97;3725259;37;20974;-75
2022/04/25 08:17:58;;;;;;;;;9.50;9.50;;;;;16.83;100.00;100307.16;3725886;37;20717;-75
2022/04/25 08:20:33;;;;;;;;;10.75;10.75;;;;;16.88;100.00;100330.00;3726157;38;20681;-75
2022/04/25 08:23:01;;;;;;;;;8.75;8.00;;;;;16.73;100.00;100334.19;3725367;38;20757;-76
2022/04/25 08:25:31;;;;;;;;;14.75;14.75;;;;;16.74;100.00;100358.56;3725809;37;20619;-78
2022/04/25 08:27:59;;;;;;;;;12.50;12.00;;;;;16.57;100.00;100356.66;3726111;37;20773;-77
2022/04/25 08:30:28;;;;;;;;;12.25;12.25;;;;;16.39;100.00;100357.50;3726465;37;20935;-75
2022/04/25 08:32:56;;;;;;;;;11.00;10.25;;;;;16.39;100.00;100369.25;3727214;37;20808;-77
2022/04/25 08:35:24;;;;;;;;;12.25;12.00;;;;;16.22;100.00;100333.50;3727020;38;20783;-78
2022/04/25 08:37:51;;;;;;;;;15.00;15.00;;;;;16.32;100.00;100318.47;3726853;37;20759;-77
2022/04/25 08:40:19;;;;;;;;;17.50;16.75;;;;;16.36;100.00;100336.09;3726864;38;20816;-80
2022/04/25 08:42:46;;;;;;;;;16.50;16.25;;;;;16.35;100.00;100329.78;3726821;38;20918;-79
2022/04/25 08:45:14;;;;;;;;;26.00;26.00;;;;;16.51;100.00;100320.16;3726672;37;20701;-78
2022/04/25 08:47:50;;;;;;;;;19.75;19.75;;;;;16.67;100.00;100300.41;3727599;37;20744;-79
2022/04/25 08:50:19;;;;;;;;;16.00;16.00;;;;;16.83;100.00;100267.00;3726968;38;20711;-78
2022/04/25 08:52:46;;;;;;;;;11.00;11.00;;;;;16.97;100.00;100243.03;3726731;37;20709;-78
2022/04/25 08:55:16;;;;;;;;;15.00;14.50;;;;;17.45;100.00;100250.25;3726625;38;20676;-78
2022/04/25 08:57:45;;;;;;;;;14.00;12.75;;;;;17.41;100.00;100222.53;3726996;37;20791;-79
2022/04/25 09:00:15;;;;;;;;;13.75;13.75;;;;;17.92;100.00;100251.13;3727944;37;20725;-83
2022/04/25 09:02:49;;;;;;;;;12.00;12.00;;;;;18.06;100.00;100257.19;3728425;38;20873;-81
2022/04/25 09:05:38;;;;;;;;;13.50;12.75;;;;;18.16;100.00;100238.25;3728491;38;20902;-80
2022/04/25 09:08:07;;;;;;;;;11.50;11.25;;;;;18.36;100.00;100257.00;3727524;38;20720;-78
2022/04/25 09:10:38;;;;;;;;;17.00;17.00;;;;;18.36;100.00;100229.59;3728410;37;20644;-83
2022/04/25 09:13:08;;;;;;;;;15.25;15.00;;;;;18.54;100.00;100251.38;3729078;38;20743;-79
2022/04/25 09:15:36;;;;;;;;;18.00;17.50;;;;;18.55;100.00;100261.25;3728875;37;20740;-81
2022/04/25 09:18:04;;;;;;;;;17.00;16.00;;;;;18.43;100.00;100271.41;3728310;37;20733;-80
2022/04/25 09:20:32;;;;;;;;;15.00;15.00;;;;;18.42;100.00;100294.41;3726857;38;20655;-78
2022/04/25 09:22:59;;;;;;;;;21.25;21.25;;;;;18.43;100.00;100296.91;3727078;38;20767;-83
2022/04/25 09:25:27;;;;;;;;;14.50;14.00;;;;;18.20;100.00;100297.75;3727572;37;20643;-81
2022/04/25 09:28:09;;;;;;;;;13.00;12.50;;;;;17.70;100.00;100255.53;3728089;37;20616;-81
2022/04/25 09:30:38;;;;;;;;;14.25;14.00;;;;;17.81;100.00;100347.78;3726962;38;20919;-79
2022/04/25 09:33:30;;;;;;;;;12.50;12.50;;;;;17.59;100.00;100354.88;3727636;37;20705;-78
2022/04/25 09:35:57;;;;;;;;;14.25;14.25;;;;;17.72;100.00;100382.87;3725671;38;20673;-76
2022/04/25 09:38:33;;;;;;;;;12.25;12.25;;;;;17.50;100.00;100325.09;3727144;38;20616;-80
2022/04/25 09:41:01;;;;;;;;;13.25;12.75;;;;;17.75;100.00;100321.34;3728743;37;20582;-83
2022/04/25 09:43:30;;;;;;;;;14.50;13.50;;;;;17.95;100.00;100302.69;3726832;38;20621;-79
2022/04/25 09:46:12;;;;;;;;;17.75;17.00;;;;;18.11;100.00;100296.50;3726866;38;20641;-78
2022/04/25 09:48:43;;;;;;;;;13.75;13.75;;;;;18.42;100.00;100299.88;3726940;37;20623;-80
2022/04/25 09:51:12;;;;;;;;;14.50;14.50;;;;;18.56;100.00;100259.34;3727652;38;20837;-83
2022/04/25 09:53:50;;;;;;;;;13.00;12.50;;;;;18.68;100.00;100244.56;3728160;37;20603;-82
2022/04/25 09:56:20;;;;;;;;;13.75;13.75;;;;;18.69;100.00;100198.78;3726246;38;20647;-79
2022/04/25 09:59:07;;;;;;;;;10.75;10.75;;;;;18.89;100.00;100207.38;3726056;37;20806;-76
2022/04/25 10:01:40;;;;;;;;;13.50;11.00;;;;;18.91;100.00;100198.88;3727870;38;20563;-84
2022/04/25 10:04:34;;;;;;;;;12.25;11.25;;;;;19.03;100.00;100175.81;3725915;37;20796;-79
2022/04/25 10:07:06;;;;;;;;;6.25;6.25;;;;;19.09;100.00;100169.31;3725645;37;20567;-80
2022/04/25 10:09:35;;;;;;;;;9.00;9.00;;;;;19.40;100.00;100176.13;3726193;37;20515;-77
2022/04/25 10:12:04;;;;;;;;;9.75;9.75;;;;;19.56;100.00;100159.91;3725822;38;20623;-77
2022/04/25 10:14:32;;;;;;;;;5.50;5.50;;;;;19.70;100.00;100162.06;3724811;38;20563;-75
2022/04/25 10:17:00;;;;;;;;;6.25;6.25;;;;;19.95;100.00;100147.81;3725081;38;20703;-75
2022/04/25 10:19:28;;;;;;;;;5.25;5.25;;;;;20.08;100.00;100138.38;3725689;37;20722;-76
2022/04/25 10:21:57;;;;;;;;;5.25;5.25;;;;;20.29;100.00;100151.22;3725112;37;20809;-75
2022/04/25 10:24:25;;;;;;;;;7.00;7.00;;;;;20.19;100.00;100139.31;3725350;37;20709;-77
2022/04/25 10:26:54;;;;;;;;;7.50;6.25;;;;;20.16;100.00;100118.69;3724481;37;20725;-74
2022/04/25 10:29:29;;;;;;;;;6.50;5.00;;;;;20.42;100.00;100134.38;3724117;37;20854;-77
2022/04/25 10:31:59;;;;;;;;;7.00;6.50;;;;;20.43;100.00;100136.03;3724763;37;20657;-77
2022/04/25 10:35:01;;;;;;;;;5.25;4.50;;;;;20.49;100.00;100077.28;3725930;37;20455;-76
2022/04/25 10:37:39;;;;;;;;;3.50;3.50;;;;;20.87;91.54;100113.88;3726043;37;20733;-79
2022/04/25 10:40:13;;;;;;;;;6.00;4.50;;;;;20.93;97.91;100114.75;3727773;37;20608;-83
2022/04/25 10:46:13;;;;;;;;;4.75;4.75;;;;;20.79;86.69;100024.47;3726714;37;20600;-76
2022/04/25 10:49:06;;;;;;;;;6.75;5.75;;;;;20.69;92.55;100005.12;3727265;37;20660;-77
2022/04/25 10:51:39;;;;;;;;;3.75;3.75;;;;;20.90;95.05;100096.88;3726417;37;20680;-76
2022/04/25 10:54:08;;;;;;;;;4.00;3.75;;;;;20.82;94.09;100084.41;3726414;38;20594;-73
2022/04/25 10:56:56;;;;;;;;;4.25;4.25;;;;;20.92;92.00;100102.09;3726759;37;20706;-75
2022/04/25 10:59:30;;;;;;;;;5.75;5.00;;;;;20.84;98.84;100106.16;3727419;38;20456;-75
2022/04/25 11:01:57;;;;;;;;;5.75;5.00;;;;;20.60;94.83;100058.13;3725869;38;20395;-74
2022/04/25 11:04:25;;;;;;;;;6.00;5.00;;;;;20.75;94.87;100100.34;3726475;38;20406;-77
2022/04/25 11:07:20;;;;;;;;;7.00;6.50;;;;;20.82;99.87;100073.41;3725792;37;20404;-77
2022/04/25 11:09:48;;;;;;;;;5.75;5.75;;;;;20.95;98.04;100083.16;3725384;37;20828;-76
2022/04/25 11:12:16;;;;;;;;;7.00;6.75;;;;;21.12;96.54;100077.50;3726752;38;20368;-78
2022/04/25 11:14:57;;;;;;;;;6.00;5.75;;;;;21.02;98.74;100023.22;3726309;37;20591;-77
2022/04/25 11:17:26;;;;;;;;;6.25;6.00;;;;;21.38;99.69;100073.00;3725157;38;20736;-75
2022/04/25 11:19:54;;;;;;;;;6.25;6.00;;;;;21.42;96.95;100074.94;3725402;37;20599;-76
2022/04/25 11:22:56;;;;;;;;;5.75;5.75;;;;;21.32;96.02;100057.53;3725104;37;20604;-76
2022/04/25 11:25:37;;;;;;;;;6.00;5.50;;;;;21.41;93.16;100054.03;3726124;37;20603;-76
2022/04/25 11:28:13;;;;;;;;;5.75;5.75;;;;;21.71;94.88;100074.56;3725501;38;20398;-75
2022/04/25 11:30:41;;;;;;;;;5.00;5.00;;;;;21.68;90.83;100069.59;3725115;37;20420;-75
2022/04/25 11:33:12;;;;;;;;;5.50;5.50;;;;;21.53;87.80;100064.81;3725758;37;20580;-76
2022/04/25 11:35:43;;;;;;;;;6.25;6.00;;;;;21.69;87.99;100062.97;3725412;38;20355;-74
2022/04/25 11:38:11;;;;;;;;;7.50;7.50;;;;;21.86;88.52;100071.00;3725430;37;20385;-73
2022/04/25 11:40:40;;;;;;;;;4.50;3.50;;;;;21.59;90.89;100038.16;3726108;37;20359;-74
2022/04/25 11:43:08;;;;;;;;;7.75;7.00;;;;;21.69;90.41;100055.53;3726296;37;20602;-75
2022/04/25 11:45:36;;;;;;;;;7.00;7.00;;;;;21.84;89.57;100065.78;3726119;37;20356;-76
2022/04/25 11:48:13;;;;;;;;;6.00;5.25;;;;;21.84;88.87;100056.69;3725052;37;20599;-76
2022/04/25 11:50:47;;;;;;;;;7.00;7.00;;;;;21.83;87.21;100061.37;3724938;38;20499;-77